Barbara Foss — WYL4318 — position and weather

sailwx.info

Track history (hours):
 
Tides and Currents Weather Stations Pressure Air Temp Water Temp Dewpoint Dewpoint Depression Visibility Wind Speed Wind Dir Waves Ship Positions

Barbara Foss

Owner: Foss International, Inc, SEATTLE, WA. More information available from US FCC via Universal Licensing System and Coast Guard Vessel Documentation Center.

Last reported at 2014-Nov-27 09:33 UTC. Time now 2014-Nov-28 02:57 UTC.
Position N 54°18' W 130°21'.

Length 39 m; draft 5.5 m.

Type: Tow > 200 m length. MMSI: 366932130.

Date/timePositionNaut miles runAvg speedWind from/ knotsBaromVisibWave heightAir tempDewpointWater temp
2014-Nov-27 09:33N 54°18' W 130°21'0 0.0
2014-Nov-27 08:34N 54°18' W 130°21'2 1.6
2014-Nov-27 07:33N 54°19' W 130°19'0 0.0
2014-Nov-27 06:33N 54°19' W 130°19'4 0.6
2014-Nov-27 00:18N 54°16' W 130°22'3 3.8
2014-Nov-26 23:33N 54°13' W 130°24'5 5.5
2014-Nov-26 22:33N 54°16' W 130°32'297 5.8
2014-Nov-24 19:28N 58°17' W 135°43'9 9.7
2014-Nov-24 18:30N 58°16' W 136°01'  
Track history (hours):
 
Tides and Currents Weather Stations Pressure Air Temp Water Temp Dewpoint Dewpoint Depression Visibility Wind Speed Wind Dir Waves Ship Positions

Barbara Foss

Owner: Foss International, Inc, SEATTLE, WA. More information available from US FCC via Universal Licensing System and Coast Guard Vessel Documentation Center.

Last reported at 2014-Nov-27 09:33 UTC. Time now 2014-Nov-28 02:57 UTC.
Position N 54°18' W 130°21'.

Length 39 m; draft 5.5 m.

Type: Tow > 200 m length. MMSI: 366932130.

Date/timePositionNaut miles runAvg speedWind from/ knotsBaromVisibWave heightAir tempDewpointWater temp
2014-Nov-27 09:33N 54°18' W 130°21'0 0.0
2014-Nov-27 08:34N 54°18' W 130°21'2 1.6
2014-Nov-27 07:33N 54°19' W 130°19'0 0.0
2014-Nov-27 06:33N 54°19' W 130°19'4 0.6
2014-Nov-27 00:18N 54°16' W 130°22'3 3.8
2014-Nov-26 23:33N 54°13' W 130°24'5 5.5
2014-Nov-26 22:33N 54°16' W 130°32'297 5.8
2014-Nov-24 19:28N 58°17' W 135°43'9 9.7
2014-Nov-24 18:30N 58°16' W 136°01'  

Dump ship's entire track history